Storm Lake, IA

10:37 AM CST on December 05, 2016 (GMT -0600)
Storm Lake Municipal

Weather History for KSLB - November, 2013

Change the Weather History Date:

Saturday, November 30, 2013

  Actual Average Record
Temperature  
Mean Temperature 38 °F -  
Max Temperature 50 °F 37 °F 50 °F (1998)
Min Temperature 26 °F 23 °F 8 °F (2006)
Degree Days  
Heating Degree Days 27    
Moisture  
Dew Point 26 °F    
Average Humidity 68    
Maximum Humidity 86    
Minimum Humidity 43    
Precipitation  
Precipitation 0.00 in - - ()
Sea Level Pressure  
Sea Level Pressure 30.06 in    
Wind  
Wind Speed 13 mph (WNW)    
Max Wind Speed 18 mph    
Max Gust Speed 16 mph    
Visibility 10 miles    
Events      
Averages and records for this station are not official NWS values.
T = Trace of Precipitation, MM = Missing Value Source: NWS Daily Summary

Daily Weather History Graph

Daily Weather History Graph

Search for Another Location

Airport or City:

Trip Planner

Search our weather history database for the weather conditions in past years. The results will help you decide how hot, cold, wet, or windy it might be!

Date:

Astronomy

Nov. 30, 2013 Rise Set
Actual Time 7:30 AM CST 4:48 PM CST
Civil Twilight 6:58 AM CST 5:20 PM CST
Nautical Twilight 6:23 AM CST 5:55 PM CST
Astronomical Twilight 5:50 AM CST 6:29 PM CST
Moon 4:39 AM CST (11/30) 3:16 PM CST (11/30)
Length of Visible Light 10h 21m
Length of Day
9h 18m
Waning Crescent, 7% of the Moon is Illuminated
Nov 30
Waning Crescent
Dec 2
New
Dec 9
First Quarter
Dec 17
Full
Dec 25
Last Quarter

Hourly Weather History & Observations

Time (CST) Temp. Windchill Dew Point Humidity Pressure Visibility Wind Dir Wind Speed Gust Speed Precip Events Conditions
12:15 AM 33.8 °F 23.2 °F 26.6 °F 75% 30.07 in 10.0 mi SSW 17.3 mph - N/A   Clear
12:35 AM 33.8 °F 22.8 °F 26.6 °F 75% 30.07 in 10.0 mi SSW 18.4 mph - N/A   Clear
12:55 AM 33.8 °F 23.2 °F 26.6 °F 75% 30.06 in 10.0 mi SSW 17.3 mph - N/A   Clear
1:15 AM 33.8 °F 23.5 °F 26.6 °F 75% 30.06 in 10.0 mi SSW 16.1 mph - N/A   Clear
1:35 AM 33.8 °F 23.5 °F 26.6 °F 75% 30.06 in 10.0 mi SSW 16.1 mph - N/A   Clear
1:55 AM 33.8 °F 23.2 °F 24.8 °F 70% 30.05 in 10.0 mi SW 17.3 mph - N/A   Clear
2:15 AM 32.0 °F 22.1 °F 24.8 °F 75% 30.05 in 10.0 mi SSW 13.8 mph - N/A   Clear
2:35 AM 32.0 °F 22.1 °F 24.8 °F 75% 30.05 in - SW 13.8 mph - N/A   Clear
2:55 AM 32.0 °F 21.2 °F 24.8 °F 75% 30.04 in 10.0 mi SSW 16.1 mph - N/A   Clear
3:15 AM 32.0 °F 22.1 °F 24.8 °F 75% 30.05 in 10.0 mi SSW 13.8 mph - N/A   Clear
3:35 AM 30.2 °F 19.8 °F 24.8 °F 80% 30.03 in 10.0 mi SSW 13.8 mph - N/A   Clear
3:55 AM 30.2 °F 20.2 °F 24.8 °F 80% 30.03 in 10.0 mi SSW 12.7 mph - N/A   Clear
4:15 AM 30.2 °F 19.8 °F 24.8 °F 80% 30.02 in 10.0 mi SW 13.8 mph - N/A   Clear
4:35 AM 30.2 °F 20.2 °F 24.8 °F 80% 30.02 in 10.0 mi SSW 12.7 mph - N/A   Clear
4:55 AM 30.2 °F 19.8 °F 24.8 °F 80% 30.02 in 10.0 mi SSW 13.8 mph - N/A   Clear
5:15 AM 30.2 °F 21.3 °F 24.8 °F 80% 30.03 in 10.0 mi SW 10.4 mph - N/A   Clear
5:35 AM 30.2 °F 20.2 °F 24.8 °F 80% 30.02 in 10.0 mi SW 12.7 mph - N/A   Clear
5:55 AM 28.4 °F 19.1 °F 23.0 °F 80% 30.02 in 10.0 mi SW 10.4 mph - N/A   Clear
6:15 AM 26.6 °F 15.2 °F 23.0 °F 86% 30.02 in 10.0 mi SW 13.8 mph - N/A   Clear
6:35 AM 28.4 °F 18.5 °F 23.0 °F 80% 30.03 in 10.0 mi WSW 11.5 mph - N/A   Clear
6:55 AM 28.4 °F 18.5 °F 24.8 °F 86% 30.03 in 10.0 mi WSW 11.5 mph - N/A   Clear
7:15 AM 28.4 °F 18.5 °F 23.0 °F 80% 30.04 in 10.0 mi WSW 11.5 mph - N/A   Clear
7:35 AM 26.6 °F 16.8 °F 23.0 °F 86% 30.04 in 10.0 mi WSW 10.4 mph - N/A   Clear
7:55 AM 26.6 °F 15.2 °F 23.0 °F 86% 30.04 in 9.0 mi WSW 13.8 mph - N/A   Clear
8:15 AM 26.6 °F 15.2 °F 23.0 °F 86% 30.04 in 9.0 mi WSW 13.8 mph - N/A   Clear
8:35 AM 28.4 °F 18.5 °F 24.8 °F 86% 30.04 in 10.0 mi West 11.5 mph - N/A   Clear
8:55 AM 30.2 °F 20.2 °F 24.8 °F 80% 30.05 in 10.0 mi West 12.7 mph - N/A   Clear
9:15 AM 32.0 °F 22.1 °F 26.6 °F 80% 30.04 in 10.0 mi WSW 13.8 mph - N/A   Clear
9:35 AM 33.8 °F 26.4 °F 26.6 °F 75% 30.05 in 10.0 mi West 9.2 mph 16.1 mph N/A   Clear
9:55 AM 35.6 °F 28.0 °F 28.4 °F 75% 30.05 in 10.0 mi West 10.4 mph - N/A   Clear
10:15 AM 37.4 °F 30.3 °F 28.4 °F 70% 30.06 in 10.0 mi West 10.4 mph - N/A   Clear
10:35 AM 39.2 °F 32.5 °F 30.2 °F 70% 30.06 in 10.0 mi WNW 10.4 mph - N/A   Clear
10:55 AM 41.0 °F 34.7 °F 30.2 °F 65% 30.05 in 10.0 mi WNW 10.4 mph - N/A   Clear
11:15 AM 41.0 °F 35.8 °F 30.2 °F 65% 30.05 in 9.0 mi WNW 8.1 mph - N/A   Clear
11:35 AM 42.8 °F 37.5 °F 30.2 °F 61% 30.04 in 10.0 mi WNW 9.2 mph - N/A   Clear
11:55 AM 44.6 °F 39.7 °F 30.2 °F 57% 30.04 in 10.0 mi WNW 9.2 mph - N/A   Clear
12:15 PM 46.4 °F 41.5 °F 30.2 °F 53% 30.04 in 10.0 mi West 10.4 mph - N/A   Clear
12:35 PM 46.4 °F 41.1 °F 30.2 °F 53% 30.04 in 10.0 mi West 11.5 mph - N/A   Clear
12:55 PM 48.2 °F - 30.2 °F 50% 30.03 in 10.0 mi West 10.4 mph - N/A   Clear
1:15 PM 48.2 °F - 30.2 °F 50% 30.04 in 10.0 mi WNW 11.5 mph - N/A   Clear
1:35 PM 50.0 °F - 30.2 °F 47% 30.03 in 10.0 mi NW 10.4 mph - N/A   Clear
1:55 PM 50.0 °F - 30.2 °F 47% 30.03 in 10.0 mi WNW 12.7 mph - N/A   Clear
2:15 PM 50.0 °F - 28.4 °F 43% 30.03 in 10.0 mi WNW 12.7 mph - N/A   Clear
2:35 PM 50.0 °F - 28.4 °F 43% 30.02 in 10.0 mi WNW 11.5 mph - N/A   Clear
2:55 PM 50.0 °F - 28.4 °F 43% 30.02 in 10.0 mi NW 11.5 mph - N/A   Clear
3:15 PM 50.0 °F - 28.4 °F 43% 30.02 in 10.0 mi NW 11.5 mph - N/A   Clear
3:35 PM 48.2 °F - 28.4 °F 46% 30.03 in 10.0 mi NW 9.2 mph - N/A   Clear
3:55 PM 48.2 °F - 28.4 °F 46% 30.03 in 10.0 mi NW 10.4 mph - N/A   Clear
4:15 PM 46.4 °F 42.4 °F 28.4 °F 50% 30.04 in 10.0 mi NW 8.1 mph - N/A   Clear
4:35 PM 42.8 °F 37.0 °F 26.6 °F 53% 30.04 in 10.0 mi NNW 10.4 mph - N/A   Clear
4:55 PM 41.0 °F 34.7 °F 26.6 °F 57% 30.05 in 10.0 mi NNW 10.4 mph - N/A   Clear
5:15 PM 41.0 °F 36.4 °F 26.6 °F 57% 30.06 in 10.0 mi NNW 6.9 mph - N/A   Clear
5:35 PM 41.0 °F 37.1 °F 26.6 °F 57% 30.06 in 10.0 mi NW 5.8 mph - N/A   Clear
5:55 PM 39.2 °F 33.0 °F 26.6 °F 61% 30.07 in 10.0 mi NW 9.2 mph - N/A   Clear
6:15 PM 39.2 °F 33.0 °F 26.6 °F 61% 30.08 in 4.0 mi NW 9.2 mph - N/A   Haze
6:35 PM 39.2 °F 33.6 °F 26.6 °F 61% 30.08 in 9.0 mi NW 8.1 mph - N/A   Clear
6:55 PM 37.4 °F 30.3 °F 24.8 °F 60% 30.08 in 10.0 mi North 10.4 mph - N/A   Clear
7:15 PM 33.8 °F 26.4 °F 24.8 °F 70% 30.09 in 10.0 mi North 9.2 mph - N/A   Clear
7:35 PM 32.0 °F 24.8 °F 24.8 °F 75% 30.09 in 10.0 mi NNE 8.1 mph - N/A   Clear
7:55 PM 32.0 °F 25.6 °F 24.8 °F 75% 30.09 in 10.0 mi North 6.9 mph - N/A   Clear
8:15 PM 32.0 °F 24.2 °F 24.8 °F 75% 30.10 in 10.0 mi North 9.2 mph - N/A   Clear
8:35 PM 32.0 °F 24.2 °F 24.8 °F 75% 30.10 in 10.0 mi NNE 9.2 mph - N/A   Clear
8:55 PM 32.0 °F 24.2 °F 24.8 °F 75% 30.10 in 10.0 mi North 9.2 mph - N/A   Clear
9:15 PM 33.8 °F 25.3 °F 24.8 °F 70% 30.10 in 10.0 mi NNE 11.5 mph - N/A   Clear
9:35 PM 32.0 °F 25.6 °F 23.0 °F 69% 30.10 in 10.0 mi NNE 6.9 mph - N/A   Clear
9:55 PM 32.0 °F 24.2 °F 23.0 °F 69% 30.10 in 10.0 mi North 9.2 mph - N/A   Clear
10:15 PM 32.0 °F 23.6 °F 23.0 °F 69% 30.11 in 10.0 mi North 10.4 mph - N/A   Clear
10:35 PM 32.0 °F 24.2 °F 23.0 °F 69% 30.12 in 10.0 mi North 9.2 mph - N/A   Clear
10:55 PM 32.0 °F 23.6 °F 23.0 °F 69% 30.12 in 10.0 mi North 10.4 mph - N/A   Clear
11:15 PM 32.0 °F 23.6 °F 23.0 °F 69% 30.13 in 10.0 mi North 10.4 mph - N/A   Clear
11:35 PM 30.2 °F 22.6 °F 23.0 °F 75% 30.13 in 10.0 mi North 8.1 mph - N/A   Clear
11:55 PM 30.2 °F 22.6 °F 23.0 °F 75% 30.13 in 10.0 mi North 8.1 mph - N/A   Clear